Time;durP1;ratioP1;P1;durP2;ratioP2;P2;SDS_P1;SDS_P2;PMS_P1;PMS_P2;Temp;Humidity;BMP_temperature;BMP_pressure;BME280_temperature;BME280_humidity;BME280_pressure;Samples;Min_cycle;Max_cycle;Signal;HPM_P1;HPM_P2
2022/01/23 00:00:19;;;;;;;;;19.00;19.00;;;;;-3.73;69.97;100501.47;4929890;29;9716;-77
2022/01/23 00:03:15;;;;;;;;;24.25;22.00;;;;;-3.69;70.32;100504.25;4911956;29;8885;-76
2022/01/23 00:05:46;;;;;;;;;24.00;20.00;;;;;-3.84;70.75;100502.38;4895693;29;8888;-77
2022/01/23 00:08:20;;;;;;;;;21.25;17.75;;;;;-3.78;70.89;100501.91;4890181;29;8888;-78
2022/01/23 00:10:52;;;;;;;;;23.00;21.25;;;;;-3.54;69.92;100506.22;4892382;29;8869;-76
2022/01/23 00:13:37;;;;;;;;;18.00;15.00;;;;;-3.45;69.44;100500.03;4877085;29;8889;-75
2022/01/23 00:18:53;;;;;;;;;22.00;16.00;;;;;-3.18;68.18;100499.38;4892938;29;8892;-78
2022/01/23 00:21:22;;;;;;;;;24.25;21.25;;;;;-3.25;68.69;100496.31;4891697;29;8857;-75
2022/01/23 00:32:19;;;;;;;;;16.00;14.00;;;;;-2.71;66.39;100495.78;4910860;29;9050;-78
2022/01/23 00:34:48;;;;;;;;;21.25;18.75;;;;;-2.49;66.56;100490.44;4911079;29;8865;-77
2022/01/23 00:37:17;;;;;;;;;27.75;22.50;;;;;-2.32;65.09;100490.69;4911249;29;8869;-78
2022/01/23 00:39:47;;;;;;;;;22.25;20.00;;;;;-2.17;64.93;100486.59;4891905;29;8871;-78
2022/01/23 00:42:15;;;;;;;;;15.00;13.50;;;;;-2.01;64.93;100493.56;4913788;29;9627;-77
2022/01/23 00:44:47;;;;;;;;;19.00;17.50;;;;;-1.96;63.84;100500.75;4898610;29;8874;-78
2022/01/23 00:47:16;;;;;;;;;18.25;16.00;;;;;-1.78;64.51;100489.94;4914022;29;8863;-79
2022/01/23 00:49:50;;;;;;;;;18.75;15.75;;;;;-1.63;64.64;100500.25;4910978;29;8877;-77
2022/01/23 00:52:22;;;;;;;;;21.00;19.50;;;;;-1.52;63.75;100500.94;4861678;29;9620;-76
2022/01/23 00:54:53;;;;;;;;;19.50;18.75;;;;;-1.44;64.49;100508.28;4905763;29;8875;-78
2022/01/23 00:57:22;;;;;;;;;18.00;16.00;;;;;-1.35;63.96;100507.13;4895079;29;8946;-76
2022/01/23 00:59:53;;;;;;;;;17.25;15.50;;;;;-1.28;64.25;100499.91;4894572;29;9702;-76
2022/01/23 01:02:24;;;;;;;;;19.50;18.50;;;;;-1.23;63.45;100506.22;4851904;29;8876;-75
2022/01/23 01:04:54;;;;;;;;;20.25;18.25;;;;;-1.35;62.18;100502.88;4937622;28;8853;-76
2022/01/23 01:07:23;;;;;;;;;17.00;15.50;;;;;-1.50;61.39;100507.03;4972911;28;9563;-78
2022/01/23 01:09:53;;;;;;;;;19.50;18.00;;;;;-2.22;62.30;100501.59;4977494;28;8877;-77
2022/01/23 01:12:35;;;;;;;;;18.25;18.25;;;;;-2.29;63.26;100503.66;4992145;28;8889;-77
2022/01/23 01:31:48;;;;;;;;;24.00;22.50;;;;;-1.35;63.29;100496.88;4857198;29;8907;-76
2022/01/23 01:34:23;;;;;;;;;26.50;22.25;;;;;-1.30;63.04;100492.94;4842057;29;8889;-78
2022/01/23 01:36:53;;;;;;;;;25.50;21.75;;;;;-1.28;62.38;100496.47;4856727;29;9629;-76
2022/01/23 01:39:26;;;;;;;;;25.25;23.25;;;;;-1.26;62.22;100493.22;4841935;29;8853;-77
2022/01/23 01:41:55;;;;;;;;;33.75;32.25;;;;;-1.23;62.46;100501.09;4855968;29;8877;-77
2022/01/23 01:44:27;;;;;;;;;34.50;31.00;;;;;-1.23;62.74;100503.66;4872105;29;8883;-79
2022/01/23 01:46:56;;;;;;;;;34.25;30.25;;;;;-1.23;62.24;100503.66;4872616;29;8894;-77
2022/01/23 01:49:30;;;;;;;;;34.25;29.75;;;;;-1.26;61.34;100500.03;4856707;29;9006;-76
2022/01/23 01:52:02;;;;;;;;;38.25;34.75;;;;;-1.25;61.78;100504.31;4848335;29;8874;-78
2022/01/23 01:54:33;;;;;;;;;36.25;34.50;;;;;-1.28;62.28;100504.16;4872166;29;8843;-75
2022/01/23 01:57:10;;;;;;;;;33.25;32.00;;;;;-1.32;61.90;100503.06;4856766;29;8874;-75
2022/01/23 02:00:15;;;;;;;;;23.75;20.75;;;;;-1.28;61.91;100505.03;4882584;29;8849;-76
2022/01/23 02:08:38;;;;;;;;;27.75;24.00;;;;;-1.40;61.42;100507.72;4913246;29;8854;-77
2022/01/23 02:11:12;;;;;;;;;31.75;29.25;;;;;-1.41;61.43;100503.38;4912701;29;8983;-76
2022/01/23 02:13:46;;;;;;;;;30.00;27.00;;;;;-1.45;61.49;100500.53;4913026;29;9635;-77
2022/01/23 02:16:40;;;;;;;;;27.50;24.00;;;;;-1.52;61.03;100499.25;4909540;29;8920;-75
2022/01/23 02:25:29;;;;;;;;;28.50;23.00;;;;;-1.59;61.37;100515.00;4912734;29;8873;-77
2022/01/23 02:53:36;;;;;;;;;18.50;17.00;;;;;-1.65;61.85;100512.06;4896530;29;8874;-78
2022/01/23 02:56:18;;;;;;;;;17.25;14.75;;;;;-1.85;61.14;100508.22;4912432;29;8862;-77
2022/01/23 02:58:56;;;;;;;;;19.00;15.50;;;;;-1.87;61.18;100510.69;4912367;29;9672;-74
2022/01/23 03:01:34;;;;;;;;;13.50;13.00;;;;;-1.84;61.14;100512.56;4912701;29;8851;-77
2022/01/23 03:04:26;;;;;;;;;18.50;15.25;;;;;-1.82;60.82;100514.41;4888532;29;8875;-77
2022/01/23 03:07:35;;;;;;;;;24.50;18.50;;;;;-1.80;61.11;100522.19;4912460;29;8890;-76
2022/01/23 03:10:17;;;;;;;;;25.00;16.50;;;;;-1.81;60.91;100517.88;4912412;29;8929;-78
2022/01/23 03:16:11;;;;;;;;;14.50;13.50;;;;;-1.74;61.64;100521.69;4886946;29;8878;-75
2022/01/23 03:24:30;;;;;;;;;16.25;14.00;;;;;-1.82;61.23;100516.09;4888421;29;8873;-75
2022/01/23 03:27:14;;;;;;;;;19.50;17.00;;;;;-1.84;61.50;100499.78;4890566;29;8914;-78
2022/01/23 03:29:54;;;;;;;;;19.25;16.75;;;;;-1.81;61.53;100489.75;4890452;29;8861;-75
2022/01/23 03:32:30;;;;;;;;;13.25;12.50;;;;;-1.79;62.05;100490.72;4871248;29;8858;-76
2022/01/23 03:35:00;;;;;;;;;15.50;14.00;;;;;-1.82;61.68;100486.28;4890402;29;8891;-77
2022/01/23 03:37:29;;;;;;;;;16.50;15.50;;;;;-1.80;61.94;100500.06;4874749;29;8897;-75
2022/01/23 03:39:58;;;;;;;;;18.25;16.50;;;;;-1.80;61.68;100491.50;4890161;29;8908;-77
2022/01/23 03:42:28;;;;;;;;;12.25;10.50;;;;;-1.76;61.87;100485.78;4940494;28;8899;-76
2022/01/23 03:45:18;;;;;;;;;13.25;10.25;;;;;-1.69;62.13;100487.09;4934156;28;8865;-77
2022/01/23 03:49:30;;;;;;;;;14.75;14.00;;;;;-1.75;62.42;100479.91;4949438;28;8939;-74
2022/01/23 03:50:49;;;;;;;;;12.50;12.25;;;;;-1.61;62.10;100475.66;4946251;28;8890;-76
2022/01/23 03:53:44;;;;;;;;;14.00;10.25;;;;;-1.50;62.21;100478.91;4927991;29;8873;-77
2022/01/23 03:56:18;;;;;;;;;13.50;11.00;;;;;-1.42;62.64;100473.50;4896456;29;8987;-78
2022/01/23 03:58:47;;;;;;;;;3.75;2.75;;;;;-1.28;62.02;100478.56;4925542;29;8885;-76
2022/01/23 04:01:25;;;;;;;;;21.75;11.50;;;;;-1.25;61.76;100476.19;4931153;29;8910;-76
2022/01/23 04:04:07;;;;;;;;;11.00;11.00;;;;;-1.14;61.93;100475.16;4915036;29;8859;-77
2022/01/23 04:06:35;;;;;;;;;14.75;12.50;;;;;-1.13;61.45;100470.97;4930961;29;8856;-77
2022/01/23 04:09:04;;;;;;;;;16.00;15.25;;;;;-1.04;61.64;100467.28;4884183;29;8858;-74
2022/01/23 04:11:32;;;;;;;;;10.75;8.25;;;;;-0.95;61.91;100460.94;4899414;29;8875;-78
2022/01/23 04:14:06;;;;;;;;;18.50;16.50;;;;;-0.91;61.42;100460.31;4934473;28;12449;-77
2022/01/23 04:17:03;;;;;;;;;16.00;15.00;;;;;-0.83;61.77;100454.88;4896088;28;8963;-78
2022/01/23 04:19:44;;;;;;;;;16.25;15.25;;;;;-0.77;61.52;100456.03;4933772;28;8877;-75
2022/01/23 04:33:41;;;;;;;;;15.00;13.67;;;;;-0.53;60.98;100447.25;5003690;28;8957;-77
2022/01/23 05:01:31;;;;;;;;;11.75;11.75;;;;;-1.62;61.22;100464.56;4952019;28;8874;-76
2022/01/23 05:04:15;;;;;;;;;15.00;13.00;;;;;-1.50;62.05;100467.00;4952182;28;9003;-79
2022/01/23 05:07:09;;;;;;;;;11.50;8.50;;;;;-1.89;62.38;100473.94;4968545;28;8862;-77
2022/01/23 05:10:16;;;;;;;;;15.50;11.50;;;;;-2.27;64.39;100474.88;4884645;29;8886;-75
2022/01/23 05:12:57;;;;;;;;;7.25;7.25;;;;;-2.22;64.56;100475.19;4905928;29;8874;-76
2022/01/23 05:15:26;;;;;;;;;7.50;7.50;;;;;-2.18;64.27;100483.13;4890666;29;8857;-74
2022/01/23 05:17:54;;;;;;;;;6.25;5.75;;;;;-2.36;65.90;100474.28;4910480;29;8885;-77
2022/01/23 05:20:27;;;;;;;;;9.25;8.00;;;;;-2.71;66.42;100477.03;4926381;29;9042;-75
2022/01/23 05:23:02;;;;;;;;;8.25;7.00;;;;;-2.91;66.14;100470.56;4910444;29;8881;-77
2022/01/23 05:25:34;;;;;;;;;8.75;8.75;;;;;-3.08;67.40;100474.50;4888199;29;8867;-76
2022/01/23 05:28:02;;;;;;;;;8.50;6.25;;;;;-3.43;68.94;100476.41;4872949;29;8867;-76
2022/01/23 05:30:31;;;;;;;;;9.25;9.25;;;;;-3.55;70.11;100480.66;4856892;29;8895;-77
2022/01/23 05:33:00;;;;;;;;;9.75;9.25;;;;;-3.73;70.54;100480.22;4857373;29;8996;-77
2022/01/23 05:35:31;;;;;;;;;12.50;7.50;;;;;-3.63;70.98;100476.66;4872434;29;9627;-78
2022/01/23 05:38:01;;;;;;;;;19.50;19.50;;;;;-3.27;70.09;100475.81;4888023;29;8949;-77
2022/01/23 05:40:31;;;;;;;;;6.25;4.50;;;;;-3.47;70.47;100481.19;4901353;28;8904;-74
2022/01/23 05:43:02;;;;;;;;;8.25;7.00;;;;;-3.43;69.94;100475.53;4913228;29;8867;-76
2022/01/23 05:45:37;;;;;;;;;11.50;9.00;;;;;-3.40;69.98;100480.84;4913206;29;8862;-77
2022/01/23 05:48:06;;;;;;;;;9.75;8.00;;;;;-3.68;71.41;100478.88;4928775;29;8879;-76
2022/01/23 05:50:59;;;;;;;;;9.00;9.00;;;;;-3.71;71.21;100478.66;4928831;29;8901;-75
2022/01/23 05:53:57;;;;;;;;;10.50;9.00;;;;;-3.20;69.91;100472.88;4913232;29;8867;-77
2022/01/23 05:56:32;;;;;;;;;15.00;13.00;;;;;-3.19;69.21;100477.22;4913332;29;9072;-76
2022/01/23 05:59:22;;;;;;;;;9.25;7.50;;;;;-2.72;68.21;100471.06;4911814;29;8862;-74
2022/01/23 06:01:53;;;;;;;;;6.75;6.75;;;;;-2.76;66.99;100463.94;4928734;29;8881;-75
2022/01/23 06:04:28;;;;;;;;;13.50;10.00;;;;;-2.75;66.32;100471.72;4970588;28;8948;-77
2022/01/23 06:07:06;;;;;;;;;7.50;7.50;;;;;-2.89;67.28;100469.91;4970289;28;9050;-78
2022/01/23 06:09:39;;;;;;;;;7.00;6.75;;;;;-2.61;67.00;100467.56;4921655;28;8848;-76
2022/01/23 06:12:10;;;;;;;;;10.00;10.00;;;;;-2.33;66.32;100466.81;4970033;28;8957;-75
2022/01/23 06:14:39;;;;;;;;;9.25;9.00;;;;;-2.01;66.06;100475.69;4986195;28;9700;-74
2022/01/23 06:17:07;;;;;;;;;12.50;11.50;;;;;-1.86;66.14;100476.66;4953872;28;8969;-75
2022/01/23 06:19:54;;;;;;;;;12.00;10.00;;;;;-1.59;65.47;100481.75;4956842;28;8944;-77
2022/01/23 06:22:46;;;;;;;;;19.25;14.75;;;;;-1.34;64.67;100484.19;4913946;29;9637;-78
2022/01/23 06:25:37;;;;;;;;;16.50;13.75;;;;;-1.19;63.68;100477.47;4928003;29;8824;-76
2022/01/23 06:28:30;;;;;;;;;17.00;13.50;;;;;-1.05;63.29;100477.41;4896506;29;8864;-76
2022/01/23 06:31:00;;;;;;;;;17.50;12.75;;;;;-0.91;62.63;100483.38;4947011;28;9797;-75
2022/01/23 06:33:30;;;;;;;;;27.50;18.50;;;;;-0.91;61.78;100489.34;4947397;28;8887;-75
2022/01/23 06:35:58;;;;;;;;;18.25;16.00;;;;;-1.14;60.67;100490.53;4942170;29;8843;-77
2022/01/23 06:38:27;;;;;;;;;18.75;17.50;;;;;-1.02;61.46;100487.81;4928226;29;8974;-75
2022/01/23 06:40:57;;;;;;;;;17.50;16.00;;;;;-1.07;61.80;100485.00;4905471;29;8879;-77
2022/01/23 06:44:02;;;;;;;;;20.75;16.50;;;;;-0.90;62.38;100486.03;4843524;29;9013;-75
2022/01/23 06:46:38;;;;;;;;;27.00;24.00;;;;;-0.77;61.90;100495.34;4836068;29;9072;-78
2022/01/23 06:49:08;;;;;;;;;23.00;18.00;;;;;-0.66;61.34;100494.28;4853153;29;8884;-77
2022/01/23 06:51:39;;;;;;;;;14.25;11.50;;;;;-0.60;61.32;100489.53;4852693;29;8930;-75
2022/01/23 06:54:09;;;;;;;;;6.25;4.00;;;;;-0.49;61.25;100497.84;4852774;29;8918;-74
2022/01/23 06:56:41;;;;;;;;;12.50;12.50;;;;;-0.38;60.85;100495.03;4853075;29;8911;-78
2022/01/23 06:59:12;;;;;;;;;22.25;20.75;;;;;-0.35;60.50;100490.09;4863208;29;8973;-75
2022/01/23 07:01:46;;;;;;;;;20.50;20.25;;;;;-0.53;59.05;100500.13;4882159;29;8900;-76
2022/01/23 07:04:37;;;;;;;;;15.50;15.50;;;;;-0.57;60.15;100493.06;4880090;29;8888;-74
2022/01/23 07:07:14;;;;;;;;;17.00;17.00;;;;;-0.58;60.21;100488.75;4897090;29;8931;-77
2022/01/23 07:10:07;;;;;;;;;21.00;17.00;;;;;-0.57;59.87;100487.94;4912714;29;8880;-78
2022/01/23 07:12:49;;;;;;;;;22.25;19.50;;;;;-0.52;60.01;100486.53;4896340;29;9050;-77
2022/01/23 07:15:28;;;;;;;;;17.25;16.00;;;;;-0.43;60.56;100480.28;4896846;29;8872;-78
2022/01/23 07:18:18;;;;;;;;;20.75;18.00;;;;;-0.36;60.02;100484.06;4891322;29;9005;-78
2022/01/23 07:21:07;;;;;;;;;21.25;18.75;;;;;-0.34;59.70;100481.59;4915373;29;8925;-77
2022/01/23 07:23:39;;;;;;;;;21.75;19.50;;;;;-0.25;60.14;100484.69;4915121;29;8902;-78
2022/01/23 07:26:08;;;;;;;;;48.25;37.75;;;;;-0.17;59.87;100490.25;4915782;29;8863;-76
2022/01/23 07:28:42;;;;;;;;;42.00;36.75;;;;;-0.16;59.14;100492.91;4915356;29;8859;-77
2022/01/23 07:31:13;;;;;;;;;17.50;13.25;;;;;-0.31;58.05;100494.59;4930801;29;8890;-75
2022/01/23 07:33:48;;;;;;;;;20.75;16.25;;;;;-0.53;58.51;100495.91;4914432;29;9767;-77
2022/01/23 07:36:17;;;;;;;;;12.75;10.00;;;;;-0.93;58.53;100503.75;4931000;29;8953;-76
2022/01/23 07:38:46;;;;;;;;;17.00;16.00;;;;;-0.78;59.03;100501.22;4915343;29;8863;-76
2022/01/23 07:41:34;;;;;;;;;12.00;12.00;;;;;-0.55;59.44;100501.72;4916431;29;8886;-80
2022/01/23 07:44:39;;;;;;;;;15.75;14.50;;;;;-0.98;58.44;100507.72;4893848;29;8929;-74
2022/01/23 07:47:27;;;;;;;;;10.25;9.00;;;;;-1.31;59.43;100509.06;4893437;29;8898;-74
2022/01/23 07:50:16;;;;;;;;;16.25;14.50;;;;;-1.26;58.99;100515.38;4873901;29;8873;-77
2022/01/23 07:53:07;;;;;;;;;30.25;24.50;;;;;-1.13;59.51;100514.47;4858683;29;8897;-78
2022/01/23 07:56:03;;;;;;;;;12.00;12.00;;;;;-1.38;59.44;100530.81;4840057;29;8865;-76
2022/01/23 07:58:53;;;;;;;;;9.50;9.50;;;;;-1.75;60.42;100532.72;4836740;29;8862;-76
2022/01/23 08:01:31;;;;;;;;;17.25;14.00;;;;;-2.27;61.99;100531.09;4836779;29;8874;-74
2022/01/23 08:04:21;;;;;;;;;9.75;7.50;;;;;-1.88;62.82;100525.94;4836411;29;8898;-77
2022/01/23 08:07:12;;;;;;;;;16.75;13.75;;;;;-2.19;62.06;100537.59;4833032;29;8880;-75
2022/01/23 08:10:01;;;;;;;;;12.00;11.50;;;;;-2.38;62.56;100544.81;4835504;29;8889;-75
2022/01/23 08:15:56;;;;;;;;;16.75;15.75;;;;;-2.12;62.15;100559.28;4846195;29;8854;-74
2022/01/23 08:18:41;;;;;;;;;14.00;11.50;;;;;-2.25;63.36;100554.16;4832293;29;8889;-76
2022/01/23 08:21:10;;;;;;;;;15.75;14.00;;;;;-2.20;62.46;100558.78;4857356;29;8883;-76
2022/01/23 08:23:41;;;;;;;;;19.50;16.00;;;;;-1.78;62.73;100552.19;4840151;29;8860;-76
2022/01/23 08:26:11;;;;;;;;;17.25;15.25;;;;;-1.67;61.59;100555.44;4864233;29;8895;-71
2022/01/23 08:28:40;;;;;;;;;15.00;14.50;;;;;-1.47;61.92;100537.94;4854903;29;8880;-72
2022/01/23 08:31:08;;;;;;;;;15.50;15.25;;;;;-1.48;60.87;100546.38;4839956;29;9629;-72
2022/01/23 08:33:37;;;;;;;;;17.00;13.50;;;;;-2.42;63.30;100545.34;4877995;29;8879;-72
2022/01/23 08:36:07;;;;;;;;;16.50;14.00;;;;;-2.87;65.36;100546.53;4913664;29;8879;-71
2022/01/23 08:38:36;;;;;;;;;11.75;11.75;;;;;-3.03;65.10;100549.72;4898541;29;8859;-70
2022/01/23 08:43:52;;;;;;;;;17.50;14.00;;;;;-3.03;65.85;100545.50;4981014;28;9036;-71
2022/01/23 08:46:22;;;;;;;;;12.25;10.50;;;;;-3.03;65.31;100547.16;4959672;28;9560;-72
2022/01/23 08:48:56;;;;;;;;;12.67;12.33;;;;;-2.99;65.53;100556.78;5008912;28;8874;-72
2022/01/23 08:51:27;;;;;;;;;14.50;12.75;;;;;-3.16;65.52;100546.31;4974995;28;12457;-75
2022/01/23 08:53:58;;;;;;;;;15.00;13.50;;;;;-3.13;66.34;100549.06;5005803;28;8874;-71
2022/01/23 08:56:31;;;;;;;;;14.00;14.00;;;;;-3.03;65.92;100555.69;4973381;28;12472;-73
2022/01/23 08:59:02;;;;;;;;;15.00;13.00;;;;;-3.04;66.84;100551.38;5007530;28;8878;-76
2022/01/23 09:01:32;;;;;;;;;22.00;16.00;;;;;-3.00;66.69;100550.81;5009690;28;8876;-73
2022/01/23 09:04:00;;;;;;;;;18.50;17.00;;;;;-3.12;67.47;100544.84;5010833;28;8853;-70
2022/01/23 09:06:33;;;;;;;;;14.50;13.25;;;;;-2.92;67.29;100561.56;4990183;28;8964;-73
2022/01/23 09:09:04;;;;;;;;;17.25;16.00;;;;;-2.77;67.01;100562.59;5004304;28;9628;-74
2022/01/23 09:11:53;;;;;;;;;15.00;12.75;;;;;-2.57;65.83;100555.41;4996702;28;8877;-75
2022/01/23 09:14:22;;;;;;;;;14.50;13.00;;;;;-2.55;65.04;100562.44;5007257;28;8885;-73
2022/01/23 09:16:56;;;;;;;;;12.75;12.50;;;;;-2.65;65.88;100570.22;5001054;28;8872;-72
2022/01/23 09:19:25;;;;;;;;;23.00;17.00;;;;;-2.76;66.55;100564.41;4998774;28;8852;-70
2022/01/23 09:21:57;;;;;;;;;15.25;13.25;;;;;-2.67;66.42;100570.91;5003927;28;8874;-72
2022/01/23 09:24:27;;;;;;;;;20.75;17.00;;;;;-2.70;66.56;100569.03;4988399;28;8871;-72
2022/01/23 09:27:02;;;;;;;;;13.00;13.00;;;;;-2.44;66.57;100567.34;5017815;28;9722;-71
2022/01/23 09:29:35;;;;;;;;;22.25;18.75;;;;;-2.42;65.52;100559.03;5007062;28;8874;-73
2022/01/23 09:32:08;;;;;;;;;22.50;20.25;;;;;-2.13;65.39;100561.78;4980377;28;12689;-72
2022/01/23 09:34:38;;;;;;;;;17.25;12.25;;;;;-2.30;65.10;100558.97;4988526;28;8870;-72
2022/01/23 09:37:13;;;;;;;;;18.25;16.00;;;;;-2.24;66.17;100568.72;5006993;28;8874;-71
2022/01/23 09:39:49;;;;;;;;;20.00;16.75;;;;;-2.30;66.55;100568.31;4974433;28;8914;-71
2022/01/23 09:42:20;;;;;;;;;16.75;15.75;;;;;-2.25;65.74;100562.72;5008088;28;8844;-73
2022/01/23 09:44:52;;;;;;;;;15.00;12.25;;;;;-1.88;65.25;100546.38;5024109;28;8868;-73
2022/01/23 09:47:22;;;;;;;;;18.00;16.75;;;;;-1.80;64.97;100543.50;5027542;28;8868;-71
2022/01/23 09:49:53;;;;;;;;;11.50;9.50;;;;;-1.84;64.76;100548.34;4993082;28;8941;-73
2022/01/23 09:52:33;;;;;;;;;16.00;15.50;;;;;-2.10;65.61;100550.06;4992138;28;8996;-71
2022/01/23 09:55:08;;;;;;;;;17.75;15.75;;;;;-1.97;64.96;100550.13;5026909;28;8845;-76
2022/01/23 09:57:38;;;;;;;;;25.25;20.00;;;;;-2.21;65.48;100556.13;4978727;28;8861;-69
2022/01/23 10:00:11;;;;;;;;;14.75;14.75;;;;;-2.32;65.93;100557.97;4958773;28;9663;-72
2022/01/23 10:02:42;;;;;;;;;19.50;18.00;;;;;-2.41;65.63;100545.47;5027843;28;8841;-74
2022/01/23 10:05:12;;;;;;;;;17.00;14.75;;;;;-2.58;65.87;100551.13;4971431;28;9438;-72
2022/01/23 10:07:42;;;;;;;;;16.50;12.50;;;;;-2.79;66.33;100553.09;5006736;28;8858;-70
2022/01/23 10:10:17;;;;;;;;;19.00;16.50;;;;;-2.46;66.07;100549.38;5028245;28;8869;-72
2022/01/23 10:12:50;;;;;;;;;22.00;19.00;;;;;-2.57;66.04;100547.75;5027937;28;8858;-71
2022/01/23 10:15:19;;;;;;;;;18.00;16.00;;;;;-2.42;66.08;100551.38;4961250;28;8873;-70
2022/01/23 10:17:51;;;;;;;;;18.00;18.00;;;;;-2.21;66.33;100553.56;5026647;28;8870;-71
2022/01/23 10:20:20;;;;;;;;;15.75;13.50;;;;;-2.06;64.88;100551.16;4977865;28;8884;-71
2022/01/23 10:22:52;;;;;;;;;17.50;14.75;;;;;-2.38;64.74;100553.34;5027767;28;8846;-72
2022/01/23 10:25:25;;;;;;;;;18.25;15.75;;;;;-2.30;65.14;100553.84;5009891;28;8951;-71
2022/01/23 10:28:02;;;;;;;;;14.75;12.75;;;;;-2.35;65.17;100545.00;5008032;28;8860;-72
2022/01/23 10:30:34;;;;;;;;;20.00;15.50;;;;;-2.29;64.62;100539.41;4993068;28;8848;-71
2022/01/23 10:33:08;;;;;;;;;25.25;21.75;;;;;-2.39;65.30;100530.25;5026770;28;8836;-72
2022/01/23 10:35:54;;;;;;;;;19.75;19.75;;;;;-2.24;65.37;100532.94;5009698;28;10222;-72
2022/01/23 10:38:28;;;;;;;;;19.00;17.00;;;;;-2.38;65.20;100537.16;5007034;28;9578;-72
2022/01/23 10:41:13;;;;;;;;;21.75;20.25;;;;;-2.46;65.84;100538.28;5023249;28;8965;-72
2022/01/23 10:46:54;;;;;;;;;22.50;22.25;;;;;-2.30;65.91;100538.53;5026609;28;8860;-71
2022/01/23 10:49:28;;;;;;;;;18.00;16.67;;;;;-2.44;65.64;100529.97;5025516;28;8886;-73
2022/01/23 10:52:00;;;;;;;;;20.00;19.75;;;;;-2.53;65.63;100541.19;5025301;28;8991;-75
2022/01/23 10:54:35;;;;;;;;;25.00;24.25;;;;;-2.44;66.02;100534.16;5009127;28;9661;-73
2022/01/23 10:57:06;;;;;;;;;25.00;22.00;;;;;-2.41;65.65;100544.59;5006608;28;8972;-78
2022/01/23 10:59:45;;;;;;;;;29.25;21.25;;;;;-2.37;66.48;100539.78;5008549;28;8856;-75
2022/01/23 11:02:21;;;;;;;;;22.25;20.00;;;;;-2.44;65.86;100535.06;4959198;28;8856;-72
2022/01/23 11:04:58;;;;;;;;;25.25;21.75;;;;;-2.43;66.38;100535.94;5025957;28;8907;-74
2022/01/23 11:07:28;;;;;;;;;18.75;16.00;;;;;-2.43;66.40;100539.38;5026274;28;8868;-71
2022/01/23 11:10:02;;;;;;;;;26.00;24.75;;;;;-2.28;65.93;100528.44;5019471;28;8882;-72
2022/01/23 11:17:22;;;;;;;;;21.00;18.75;;;;;-2.29;65.35;100534.31;5005474;28;9646;-74
2022/01/23 11:18:39;;;;;;;;;36.75;32.25;;;;;-1.96;68.23;100522.88;4884664;29;8878;-71
2022/01/23 11:21:16;;;;;;;;;22.25;17.50;;;;;-1.99;65.16;100526.09;4884392;29;9685;-72
2022/01/23 11:23:45;;;;;;;;;19.25;18.75;;;;;-2.05;66.34;100519.72;4873597;29;8861;-71
2022/01/23 11:26:17;;;;;;;;;27.75;22.25;;;;;-2.11;66.48;100507.41;4873244;29;8845;-70
2022/01/23 11:28:46;;;;;;;;;27.25;23.25;;;;;-2.01;66.98;100517.44;4875545;29;9625;-73
2022/01/23 11:31:18;;;;;;;;;18.75;17.50;;;;;-1.88;66.76;100513.16;4869356;29;8883;-71
2022/01/23 11:33:48;;;;;;;;;29.25;25.25;;;;;-1.64;66.77;100503.63;4868586;29;8875;-74
2022/01/23 11:36:19;;;;;;;;;20.00;13.50;;;;;-1.72;65.37;100500.56;4851730;29;8961;-75
2022/01/23 11:38:49;;;;;;;;;21.25;19.25;;;;;-1.43;64.48;100497.28;4836307;29;8940;-73
2022/01/23 11:55:32;;;;;;;;;20.50;18.00;;;;;-0.71;61.75;100474.31;4898096;28;9099;-75
2022/01/23 11:58:04;;;;;;;;;24.25;20.00;;;;;-1.01;63.36;100466.56;4963798;28;8889;-72
2022/01/23 12:00:37;;;;;;;;;18.00;17.00;;;;;-0.49;62.55;100473.88;4934771;28;8859;-75
2022/01/23 12:03:12;;;;;;;;;18.25;16.25;;;;;-0.62;61.59;100485.13;4965092;28;8953;-76
2022/01/23 12:05:43;;;;;;;;;19.50;16.00;;;;;-0.37;59.92;100469.50;4986397;28;8872;-76
2022/01/23 12:08:35;;;;;;;;;25.50;21.75;;;;;-0.69;60.47;100468.50;5005603;28;9610;-73
2022/01/23 12:11:37;;;;;;;;;17.50;16.00;;;;;-0.62;61.41;100470.63;4990793;28;8848;-72
2022/01/23 12:17:43;;;;;;;;;20.00;17.50;;;;;-0.70;62.11;100471.88;4990222;28;8861;-72
2022/01/23 12:20:13;;;;;;;;;11.50;11.50;;;;;-0.49;60.62;100466.22;5004705;28;8867;-72
2022/01/23 12:22:46;;;;;;;;;21.50;20.25;;;;;-0.44;61.12;100468.25;5008574;28;8928;-72
2022/01/23 12:25:21;;;;;;;;;20.00;18.75;;;;;-0.20;59.67;100460.22;4962666;28;9054;-72
2022/01/23 12:28:11;;;;;;;;;19.25;18.75;;;;;-0.13;60.17;100466.56;4956951;28;8874;-72
2022/01/23 12:30:44;;;;;;;;;30.25;23.00;;;;;-0.63;60.27;100467.97;5008128;28;8874;-73
2022/01/23 12:33:23;;;;;;;;;25.25;21.75;;;;;-0.92;60.95;100466.25;5003833;28;8869;-73
2022/01/23 12:35:56;;;;;;;;;32.50;27.00;;;;;-1.27;63.05;100480.31;4962487;28;8868;-76
2022/01/23 12:38:30;;;;;;;;;26.00;22.25;;;;;-1.12;63.72;100472.72;5006840;28;8850;-74
2022/01/23 12:41:21;;;;;;;;;17.25;16.50;;;;;-1.55;63.92;100486.31;4966862;28;9047;-76
2022/01/23 12:43:52;;;;;;;;;24.75;23.75;;;;;-1.46;64.93;100486.84;5006795;28;8863;-71
2022/01/23 12:46:32;;;;;;;;;21.50;19.00;;;;;-1.05;63.85;100488.53;5006768;28;8858;-73
2022/01/23 12:49:26;;;;;;;;;21.75;17.25;;;;;-0.89;62.38;100485.25;5008770;28;8911;-70
2022/01/23 12:52:14;;;;;;;;;20.75;20.00;;;;;-1.01;63.79;100484.47;5023177;28;8942;-73
2022/01/23 12:54:58;;;;;;;;;17.75;14.75;;;;;-1.09;63.02;100480.59;4991055;28;8879;-72
2022/01/23 12:57:35;;;;;;;;;18.00;18.00;;;;;-0.96;63.20;100489.88;5007175;28;8912;-72
2022/01/23 13:00:09;;;;;;;;;13.75;12.75;;;;;-1.37;64.70;100494.22;5007107;28;8840;-71
2022/01/23 13:02:44;;;;;;;;;20.00;18.75;;;;;-1.48;65.02;100487.56;4991858;28;8828;-70
2022/01/23 13:05:15;;;;;;;;;17.50;14.75;;;;;-1.47;64.28;100489.34;4955408;28;8859;-74
2022/01/23 13:08:05;;;;;;;;;15.25;14.50;;;;;-1.35;64.81;100490.09;4990513;28;8866;-75
2022/01/23 13:10:54;;;;;;;;;19.75;18.50;;;;;-1.37;66.18;100491.66;4940790;28;8967;-71
2022/01/23 13:13:35;;;;;;;;;16.50;16.50;;;;;-1.11;64.51;100471.94;5005174;28;8874;-76
2022/01/23 13:28:03;;;;;;;;;26.00;22.00;;;;;-0.96;64.57;100495.00;4910591;29;8942;-73
2022/01/23 13:30:23;;;;;;;;;15.50;13.00;;;;;-0.66;64.15;100490.81;4897590;29;8855;-71
2022/01/23 13:33:02;;;;;;;;;25.50;19.00;;;;;-0.60;64.16;100504.03;4895725;29;8887;-71
2022/01/23 13:35:38;;;;;;;;;24.00;20.50;;;;;-0.86;64.28;100503.31;4910793;29;8856;-74
2022/01/23 13:38:15;;;;;;;;;14.25;13.75;;;;;-1.04;63.82;100510.78;4896548;29;8937;-73
2022/01/23 13:40:45;;;;;;;;;22.75;20.00;;;;;-1.06;64.26;100517.50;4876860;28;13325;-71
2022/01/23 14:00:03;;;;;;;;;27.50;24.00;;;;;-1.12;66.12;100499.19;4992173;28;8854;-70
2022/01/23 14:02:39;;;;;;;;;22.25;19.75;;;;;-1.14;65.71;100502.44;5009629;28;8846;-77
2022/01/23 14:05:12;;;;;;;;;15.75;15.75;;;;;-1.04;66.08;100504.75;4973030;28;8955;-72
2022/01/23 14:07:46;;;;;;;;;16.00;13.50;;;;;-1.12;66.68;100509.41;4973907;28;8867;-72
2022/01/23 14:10:18;;;;;;;;;22.50;19.00;;;;;-1.08;66.60;100510.50;4971405;28;8863;-71
2022/01/23 14:12:48;;;;;;;;;15.25;12.25;;;;;-1.25;66.44;100512.91;4968074;28;8994;-74
2022/01/23 14:15:21;;;;;;;;;22.25;20.25;;;;;-1.23;67.45;100510.41;4987906;28;8876;-72
2022/01/23 14:17:58;;;;;;;;;22.00;20.00;;;;;-1.18;67.81;100512.47;4980487;28;8892;-76
2022/01/23 14:20:28;;;;;;;;;27.00;23.50;;;;;-0.99;67.79;100511.06;4939157;28;8915;-73
2022/01/23 14:22:59;;;;;;;;;20.00;18.25;;;;;-0.88;66.90;100506.59;4975097;28;8885;-71
2022/01/23 14:25:29;;;;;;;;;21.75;19.25;;;;;-0.78;66.17;100516.59;4979141;28;8867;-71
2022/01/23 14:28:07;;;;;;;;;21.50;20.00;;;;;-0.84;66.42;100518.78;4936839;28;8868;-73
2022/01/23 14:30:43;;;;;;;;;23.00;19.00;;;;;-0.76;66.39;100521.81;4986265;28;9003;-70
2022/01/23 14:33:15;;;;;;;;;23.50;19.50;;;;;-0.78;66.86;100524.28;4986130;28;8864;-71
2022/01/23 14:35:44;;;;;;;;;26.50;21.50;;;;;-0.92;67.57;100525.13;4953639;28;8893;-70
2022/01/23 14:38:15;;;;;;;;;24.75;23.75;;;;;-0.98;67.84;100521.41;4979979;28;8993;-72
2022/01/23 14:40:55;;;;;;;;;17.50;13.50;;;;;-0.83;67.25;100521.44;4974687;28;8874;-70
2022/01/23 14:43:31;;;;;;;;;25.50;23.75;;;;;-0.74;68.04;100520.22;5009144;28;9593;-72
2022/01/23 14:46:04;;;;;;;;;20.75;19.00;;;;;-0.80;68.06;100525.88;4949568;28;8930;-72
2022/01/23 14:48:38;;;;;;;;;23.00;21.75;;;;;-0.70;68.30;100522.16;4950270;28;9677;-74